Hauptseite
METAR-TAF:

METAR-TAF

Flughäfen :

Flughafen Bonriki

Tarawa, Kiribati

Breite: 01-21N, Länge: 172-55E, Höhe: 2 m

Beobachtung

Neuester Wetterbericht von vor 23 Minuten, um 01:00 UTC
Wind 9 kt aus Ost
Temperatur 32°C
Luftfeuchtigkeit 63%
Luftdruck 1008 hPa
Leicht bewölkt in der Höhe von 1900 ft, Towering cumulus.

METAR: NGTA 190100Z 09009KT FEW019TCU 32/24 Q1008

Zeit: 15:23 (01:23 UTC)

Prognose

Neuester Wetterbericht von vor 2 Stunden und 12 Minuten, um 23:11 UTC
Gültige Prognose vom 19 um 00 UTC bis 19 um 24 UTC
Wind 8 kt aus Ost
Sichtweite 10 km oder mehr
Aufgelockert bewölkt in der Höhe von 1800 ft
Aufgelockert bewölkt in der Höhe von 10000 ft
Wahrscheinlichkeit 30% :
Zeitweise
vom 19 um 00 UTC bis 19 um 06 UTC
Sichtweite: 5000 m
Durchbrochene Bewölkung in der Höhe von 1500 ft
Regenschauer

TAF: NGTA 182311Z 1900/1924 08008KT 9999 SCT018 SCT100 PROB30 TEMPO 1900/1906 5000 SHRA BKN015

Wetterbeobachtungen und Prognosen von mehr als 4000 Flughäfen (METAR und TAF Bericht).

Die verfügbaren Stationen werden durch gelbe und rote Markierungen auf der Karte dargestellt.

Führen Sie die Maus auf sie, um den Namen der Station zu sehen.

Darauf klicken, um die Beobachtung von Wetterbeobachtungen und Prognosen zu sehen.

Um die Karte zu ändern : klicken Sie auf den grünen Tasten mit einem schwarzen Kreuz Zum Vergrößern, auf den grünen Button mit einem Gedankenstrich zu verkleinern, oder auf die grünen Pfeile für benachbarte Karten.


METAR-TAF: